New Hope, Minnesota
Current Conditions -  °F | °C
As of 11:53 AM on Saturday 25 Oct 2014 (Local Time) from KMIC Reporting Station
Clear Clear  
Wind Chill: 58°   Ceiling: Unl
Heat Index: 58°   Visibility: 10mi
Dew Point: 32°   Wind: 14mph
Humidity: 37%   Direction: 280°W
Pressure: 30.04"   Gusts: 20mph
Location:  45.0617°N, 93.3804°W
Report Text: KMIC 251653Z 28012G17KT 10SM CLR 14/00 A3004 RMK AO2 SLP174 T01440000
Loading
Personal Weather Stations






























Interactive Weather Map
Tropical Storm Tracking
New forecast layout! Learn more

10-Day Weather Forecast

Advertisements
Track Severe Weather on mobile